createdAt,value
2017-01-10T00:00:58.024Z,0
2017-01-10T00:02:09.423Z,0
2017-01-10T00:03:20.833Z,0
2017-01-10T00:04:32.229Z,0
2017-01-10T00:05:43.677Z,0
2017-01-10T00:06:55.277Z,0
2017-01-10T00:08:06.673Z,0
2017-01-10T00:09:18.077Z,0
2017-01-10T00:10:29.491Z,0
2017-01-10T00:11:41.139Z,0
2017-01-10T00:12:52.535Z,0
2017-01-10T00:14:03.924Z,0
2017-01-10T00:15:15.319Z,0
2017-01-10T00:16:26.723Z,0
2017-01-10T00:17:38.170Z,0
2017-01-10T00:18:49.574Z,0
2017-01-10T00:20:01.201Z,0
2017-01-10T00:21:12.610Z,0
2017-01-10T00:22:24.018Z,0
2017-01-10T00:23:35.661Z,0
2017-01-10T00:24:47.065Z,0
2017-01-10T00:25:58.470Z,0
2017-01-10T00:27:09.878Z,0
2017-01-10T00:28:21.268Z,0
2017-01-10T00:29:32.726Z,0
2017-01-10T00:30:44.135Z,0
2017-01-10T00:31:55.538Z,0
2017-01-10T00:33:06.967Z,0
2017-01-10T00:34:18.369Z,0
2017-01-10T00:35:29.850Z,0
2017-01-10T00:36:41.251Z,0
2017-01-10T00:37:52.648Z,0
2017-01-10T00:39:04.038Z,0
2017-01-10T00:40:15.640Z,0
2017-01-10T00:41:27.293Z,0
2017-01-10T00:42:38.695Z,0
2017-01-10T00:43:50.117Z,0
2017-01-10T00:45:01.714Z,0
2017-01-10T00:46:13.119Z,0
2017-01-10T00:47:24.575Z,0
2017-01-10T00:48:35.984Z,0
2017-01-10T00:49:47.393Z,0
2017-01-10T00:50:58.787Z,0
2017-01-10T00:52:10.191Z,0
2017-01-10T00:53:21.840Z,0
2017-01-10T00:54:33.243Z,0
2017-01-10T00:55:45.042Z,0
2017-01-10T00:56:56.449Z,0
2017-01-10T00:58:07.842Z,0
2017-01-10T00:59:19.486Z,0
2017-01-10T01:00:30.886Z,0
2017-01-10T01:01:42.483Z,0
2017-01-10T01:02:54.092Z,0
2017-01-10T01:04:05.488Z,0
2017-01-10T01:05:16.944Z,0
2017-01-10T01:06:28.353Z,0
2017-01-10T01:07:39.752Z,0
2017-01-10T01:08:51.158Z,0
2017-01-10T01:10:02.591Z,0
2017-01-10T01:11:14.043Z,0
2017-01-10T01:12:25.639Z,0
2017-01-10T01:13:37.240Z,0
2017-01-10T01:14:48.638Z,0
2017-01-10T01:16:00.043Z,0
2017-01-10T01:17:11.499Z,0
2017-01-10T01:18:22.893Z,0
2017-01-10T01:19:34.290Z,0
2017-01-10T01:20:45.697Z,0
2017-01-10T01:21:57.503Z,0
2017-01-10T01:23:08.960Z,0
2017-01-10T01:24:20.358Z,0
2017-01-10T01:25:31.757Z,0
2017-01-10T01:26:43.153Z,0
2017-01-10T01:27:54.754Z,0
2017-01-10T01:29:06.221Z,0
2017-01-10T01:30:17.825Z,0
2017-01-10T01:31:29.226Z,0
2017-01-10T01:32:40.625Z,0
2017-01-10T01:33:52.052Z,0
2017-01-10T01:35:03.503Z,0
2017-01-10T01:36:14.901Z,0
2017-01-10T01:37:26.303Z,0
2017-01-10T01:38:37.706Z,0
2017-01-10T01:39:49.113Z,0
2017-01-10T01:41:00.515Z,0
2017-01-10T01:42:11.912Z,0
2017-01-10T01:43:23.316Z,0
2017-01-10T01:44:34.720Z,0
2017-01-10T01:45:46.168Z,0
2017-01-10T01:46:57.561Z,0
2017-01-10T01:48:08.968Z,0
2017-01-10T01:49:20.366Z,0
2017-01-10T01:50:31.764Z,0
2017-01-10T01:51:43.213Z,0
2017-01-10T01:52:54.611Z,0
2017-01-10T01:54:06.016Z,0
2017-01-10T01:55:17.411Z,0
2017-01-10T01:56:28.817Z,0
2017-01-10T01:57:40.263Z,0
2017-01-10T01:58:51.660Z,0
2017-01-10T02:00:03.257Z,0
2017-01-10T02:01:14.669Z,0
2017-01-10T02:02:26.275Z,0
2017-01-10T02:03:37.723Z,0
2017-01-10T02:04:49.135Z,0
2017-01-10T02:06:00.539Z,0
2017-01-10T02:07:12.146Z,0
2017-01-10T02:08:23.545Z,0
2017-01-10T02:09:35.196Z,0
2017-01-10T02:10:46.597Z,0
2017-01-10T02:11:58.032Z,0
2017-01-10T02:13:09.637Z,0
2017-01-10T02:14:21.039Z,0
2017-01-10T02:15:32.494Z,0
2017-01-10T02:16:43.891Z,0
2017-01-10T02:17:55.289Z,0
2017-01-10T02:19:06.882Z,0
2017-01-10T02:20:18.285Z,0
2017-01-10T02:21:29.737Z,0
2017-01-10T02:22:41.340Z,0
2017-01-10T02:23:52.734Z,0
2017-01-10T02:25:04.135Z,0
2017-01-10T02:26:15.537Z,0
2017-01-10T02:27:26.983Z,0
2017-01-10T02:28:38.586Z,0
2017-01-10T02:29:49.985Z,0
2017-01-10T02:31:01.390Z,0
2017-01-10T02:32:12.794Z,0
2017-01-10T02:33:24.244Z,0
2017-01-10T02:34:35.642Z,0
2017-01-10T02:35:47.044Z,0
2017-01-10T02:36:58.853Z,0
2017-01-10T02:38:10.252Z,0
2017-01-10T02:39:21.902Z,0
2017-01-10T02:40:33.305Z,0
2017-01-10T02:41:44.909Z,0
2017-01-10T02:42:56.317Z,0
2017-01-10T02:44:07.919Z,0
2017-01-10T02:45:19.772Z,0
2017-01-10T02:46:31.165Z,0
2017-01-10T02:47:42.586Z,0
2017-01-10T02:48:54.187Z,0
2017-01-10T02:50:05.591Z,0
2017-01-10T02:51:17.042Z,0
2017-01-10T02:52:28.441Z,0
2017-01-10T02:53:39.845Z,0
2017-01-10T02:54:51.238Z,0
2017-01-10T02:56:02.628Z,0
2017-01-10T02:57:14.099Z,0
2017-01-10T02:58:25.498Z,0
2017-01-10T02:59:36.905Z,0
2017-01-10T03:00:48.500Z,0
2017-01-10T03:01:59.914Z,0
2017-01-10T03:03:11.367Z,0
2017-01-10T03:04:22.776Z,0
2017-01-10T03:05:34.215Z,0
2017-01-10T03:06:45.615Z,0
2017-01-10T03:07:57.028Z,0
2017-01-10T03:09:08.482Z,0
2017-01-10T03:10:19.888Z,0
2017-01-10T03:11:31.287Z,0
2017-01-10T03:12:42.687Z,0
2017-01-10T03:13:54.296Z,0
2017-01-10T03:15:05.749Z,0
2017-01-10T03:16:17.176Z,0
2017-01-10T03:17:28.782Z,0
2017-01-10T03:18:40.216Z,0
2017-01-10T03:19:51.820Z,0
2017-01-10T03:21:03.218Z,0
2017-01-10T03:22:14.628Z,0
2017-01-10T03:23:26.225Z,0
2017-01-10T03:24:37.625Z,0
2017-01-10T03:25:49.064Z,0
2017-01-10T03:27:00.465Z,0
2017-01-10T03:28:11.867Z,0
2017-01-10T03:29:23.268Z,0
2017-01-10T03:30:34.661Z,0
2017-01-10T03:31:46.106Z,0
2017-01-10T03:32:57.745Z,0
2017-01-10T03:34:09.148Z,0
2017-01-10T03:35:20.552Z,0
2017-01-10T03:36:31.948Z,0
2017-01-10T03:37:43.403Z,0
2017-01-10T03:38:54.805Z,0
2017-01-10T03:40:06.223Z,0
2017-01-10T03:41:17.619Z,0
2017-01-10T03:42:29.015Z,0
2017-01-10T03:43:40.464Z,0
2017-01-10T03:44:51.870Z,0
2017-01-10T03:46:03.275Z,0
2017-01-10T03:47:14.882Z,0
2017-01-10T03:48:26.289Z,0
2017-01-10T03:49:37.738Z,0
2017-01-10T03:50:49.349Z,0
2017-01-10T03:52:00.757Z,0
2017-01-10T03:53:12.155Z,0
2017-01-10T03:54:23.564Z,0
2017-01-10T03:55:35.009Z,0
2017-01-10T03:56:46.408Z,0
2017-01-10T03:57:57.815Z,0
2017-01-10T03:59:09.217Z,0
2017-01-10T04:00:20.622Z,0
2017-01-10T04:01:32.073Z,0
2017-01-10T04:02:43.677Z,0
2017-01-10T04:03:55.079Z,0
2017-01-10T04:05:06.487Z,0
2017-01-10T04:06:18.288Z,0
2017-01-10T04:07:29.737Z,0
2017-01-10T04:08:41.340Z,0
2017-01-10T04:09:52.945Z,0
2017-01-10T04:11:04.354Z,0
2017-01-10T04:12:15.756Z,0
2017-01-10T04:13:27.205Z,0
2017-01-10T04:14:38.616Z,0
2017-01-10T04:15:50.008Z,0
2017-01-10T04:17:01.409Z,0
2017-01-10T04:18:12.808Z,0
2017-01-10T04:19:24.253Z,0
2017-01-10T04:20:35.855Z,0
2017-01-10T04:21:47.261Z,0
2017-01-10T04:22:58.669Z,0
2017-01-10T04:24:10.078Z,0
2017-01-10T04:25:21.527Z,0
2017-01-10T04:26:32.920Z,0
2017-01-10T04:27:44.322Z,0
2017-01-10T04:28:55.723Z,0
2017-01-10T04:30:07.126Z,0
2017-01-10T04:31:18.586Z,0
2017-01-10T04:32:30.186Z,0
2017-01-10T04:33:41.586Z,0
2017-01-10T04:34:52.997Z,0
2017-01-10T04:36:04.401Z,0
2017-01-10T04:37:15.846Z,0
2017-01-10T04:38:27.250Z,0
2017-01-10T04:39:38.658Z,0
2017-01-10T04:40:50.056Z,0
2017-01-10T04:42:01.461Z,0
2017-01-10T04:43:12.917Z,0
2017-01-10T04:44:24.321Z,0
2017-01-10T04:45:35.748Z,0
2017-01-10T04:46:47.149Z,0
2017-01-10T04:47:58.556Z,0
2017-01-10T04:49:10.010Z,0
2017-01-10T04:50:21.401Z,0
2017-01-10T04:51:32.804Z,0
2017-01-10T04:52:44.208Z,0
2017-01-10T04:53:55.609Z,0
2017-01-10T04:55:07.066Z,0
2017-01-10T04:56:18.466Z,0
2017-01-10T04:57:29.855Z,0
2017-01-10T04:58:41.257Z,0
2017-01-10T04:59:52.857Z,0
2017-01-10T05:01:04.300Z,0
2017-01-10T05:02:15.698Z,0
2017-01-10T05:03:27.104Z,0
2017-01-10T05:04:38.515Z,0
2017-01-10T05:05:49.967Z,0
2017-01-10T05:07:01.375Z,0
2017-01-10T05:08:12.967Z,0
2017-01-10T05:09:24.368Z,0
2017-01-10T05:10:35.770Z,0
2017-01-10T05:11:47.222Z,0
2017-01-10T05:12:58.615Z,0
2017-01-10T05:14:10.019Z,0
2017-01-10T05:15:21.419Z,0
2017-01-10T05:16:33.022Z,0
2017-01-10T05:17:44.494Z,0
2017-01-10T05:18:55.891Z,0
2017-01-10T05:20:07.297Z,0
2017-01-10T05:21:18.725Z,0
2017-01-10T05:22:30.134Z,0
2017-01-10T05:23:41.592Z,0
2017-01-10T05:24:52.990Z,0
2017-01-10T05:26:04.396Z,0
2017-01-10T05:27:15.805Z,0
2017-01-10T05:28:27.219Z,0
2017-01-10T05:29:38.676Z,0
2017-01-10T05:30:50.072Z,0
2017-01-10T05:32:01.879Z,0
2017-01-10T05:33:13.277Z,0
2017-01-10T05:34:24.674Z,0
2017-01-10T05:35:36.129Z,0
2017-01-10T05:36:47.531Z,0
2017-01-10T05:37:58.931Z,0
2017-01-10T05:39:10.336Z,0
2017-01-10T05:40:21.736Z,0
2017-01-10T05:41:33.401Z,0
2017-01-10T05:42:44.799Z,0
2017-01-10T05:43:56.199Z,0
2017-01-10T05:45:07.595Z,0
2017-01-10T05:46:19.001Z,0
2017-01-10T05:47:30.453Z,0
2017-01-10T05:48:41.859Z,0
2017-01-10T05:49:53.261Z,0
2017-01-10T05:51:04.665Z,0
2017-01-10T05:52:16.266Z,0
2017-01-10T05:53:27.725Z,0
2017-01-10T05:54:39.123Z,0
2017-01-10T05:55:50.518Z,0
2017-01-10T05:57:02.115Z,0
2017-01-10T05:58:13.744Z,0
2017-01-10T05:59:25.212Z,0
2017-01-10T06:00:36.611Z,0
2017-01-10T06:01:48.011Z,0
2017-01-10T06:02:59.417Z,0
2017-01-10T06:04:11.018Z,0
2017-01-10T06:05:22.480Z,0
2017-01-10T06:06:33.881Z,0
2017-01-10T06:07:45.291Z,0
2017-01-10T06:08:56.718Z,0
2017-01-10T06:10:08.118Z,0
2017-01-10T06:11:19.561Z,0
2017-01-10T06:12:30.956Z,0
2017-01-10T06:13:42.350Z,0
2017-01-10T06:14:53.955Z,0
2017-01-10T06:16:05.358Z,0
2017-01-10T06:17:17.009Z,0
2017-01-10T06:18:28.413Z,0
2017-01-10T06:19:40.012Z,0
2017-01-10T06:20:51.610Z,0
2017-01-10T06:22:03.018Z,0
2017-01-10T06:23:14.474Z,0
2017-01-10T06:24:25.864Z,0
2017-01-10T06:25:37.257Z,0
2017-01-10T06:26:48.870Z,0
2017-01-10T06:28:00.268Z,0
2017-01-10T06:29:11.913Z,0
2017-01-10T06:30:23.315Z,0
2017-01-10T06:31:34.715Z,0
2017-01-10T06:32:46.117Z,0
2017-01-10T06:33:57.509Z,0
2017-01-10T06:35:08.962Z,0
2017-01-10T06:36:20.362Z,0
2017-01-10T06:37:31.755Z,0
2017-01-10T06:38:43.156Z,0
2017-01-10T06:39:54.559Z,0
2017-01-10T06:41:06.153Z,0
2017-01-10T06:42:17.752Z,0
2017-01-10T06:43:29.153Z,0
2017-01-10T06:44:40.774Z,0
2017-01-10T06:45:52.256Z,0
2017-01-10T06:47:03.661Z,0
2017-01-10T06:48:15.069Z,0
2017-01-10T06:49:26.463Z,0
2017-01-10T06:50:37.858Z,0
2017-01-10T06:51:49.513Z,0
2017-01-10T06:53:01.118Z,0
2017-01-10T06:54:12.562Z,0
2017-01-10T06:55:23.957Z,0
2017-01-10T06:56:35.362Z,0
2017-01-10T06:57:47.015Z,0
2017-01-10T06:58:58.419Z,0
2017-01-10T07:00:09.822Z,0
2017-01-10T07:01:21.226Z,0
2017-01-10T07:02:32.627Z,0
2017-01-10T07:03:44.084Z,0
2017-01-10T07:04:55.496Z,0
2017-01-10T07:06:06.886Z,0
2017-01-10T07:07:18.285Z,0
2017-01-10T07:08:29.686Z,0
2017-01-10T07:09:41.351Z,0
2017-01-10T07:10:52.752Z,0
2017-01-10T07:12:04.152Z,0
2017-01-10T07:13:15.752Z,0
2017-01-10T07:14:27.150Z,0
2017-01-10T07:15:38.595Z,0
2017-01-10T07:16:49.987Z,0
2017-01-10T07:18:01.384Z,0
2017-01-10T07:19:12.791Z,0
2017-01-10T07:20:24.195Z,0
2017-01-10T07:21:35.844Z,0
2017-01-10T07:22:47.259Z,0
2017-01-10T07:23:58.655Z,0
2017-01-10T07:25:10.057Z,0
2017-01-10T07:26:21.456Z,0
2017-01-10T07:27:32.857Z,0
2017-01-10T07:28:44.260Z,0
2017-01-10T07:29:55.657Z,0
2017-01-10T07:31:07.060Z,0
2017-01-10T07:32:18.505Z,0
2017-01-10T07:33:29.894Z,0
2017-01-10T07:34:41.495Z,0
2017-01-10T07:35:53.096Z,0
2017-01-10T07:37:04.495Z,0
2017-01-10T07:38:15.945Z,0
2017-01-10T07:39:27.737Z,0
2017-01-10T07:40:39.133Z,0
2017-01-10T07:41:50.527Z,0
2017-01-10T07:43:01.957Z,0
2017-01-10T07:44:13.399Z,0
2017-01-10T07:45:24.797Z,0
2017-01-10T07:46:36.192Z,0
2017-01-10T07:47:47.795Z,0
2017-01-10T07:48:59.196Z,0
2017-01-10T07:50:10.667Z,0
2017-01-10T07:51:22.273Z,5
2017-01-10T07:52:33.669Z,5
2017-01-10T07:53:45.065Z,5
2017-01-10T07:54:56.466Z,5
2017-01-10T07:56:07.953Z,5
2017-01-10T07:57:19.351Z,5
2017-01-10T07:58:30.751Z,10
2017-01-10T07:59:42.150Z,10
2017-01-10T08:00:53.552Z,10
2017-01-10T08:02:04.997Z,10
2017-01-10T08:03:16.600Z,10
2017-01-10T08:04:28.000Z,10
2017-01-10T08:05:39.419Z,10
2017-01-10T08:06:50.814Z,10
2017-01-10T08:08:02.262Z,10
2017-01-10T08:09:13.656Z,10
2017-01-10T08:10:25.056Z,10
2017-01-10T08:11:36.445Z,10
2017-01-10T08:12:47.846Z,10
2017-01-10T08:13:59.317Z,10
2017-01-10T08:15:10.715Z,10
2017-01-10T08:16:22.112Z,10
2017-01-10T08:17:33.524Z,10
2017-01-10T08:18:45.324Z,10
2017-01-10T08:19:56.777Z,15
2017-01-10T08:21:08.174Z,15
2017-01-10T08:22:19.580Z,10
2017-01-10T08:23:30.983Z,10
2017-01-10T08:24:42.375Z,10
2017-01-10T08:25:53.825Z,10
2017-01-10T08:27:05.231Z,10
2017-01-10T08:28:16.862Z,10
2017-01-10T08:29:28.260Z,5
2017-01-10T08:30:39.660Z,5
2017-01-10T08:31:51.317Z,10
2017-01-10T08:33:02.722Z,5
2017-01-10T08:34:14.324Z,5
2017-01-10T08:35:25.721Z,5
2017-01-10T08:36:37.124Z,5
2017-01-10T08:37:48.578Z,5
2017-01-10T08:38:59.981Z,5
2017-01-10T08:40:11.373Z,10
2017-01-10T08:41:22.968Z,10
2017-01-10T08:42:34.579Z,10
2017-01-10T08:43:46.027Z,10
2017-01-10T08:44:57.433Z,10
2017-01-10T08:46:08.826Z,10
2017-01-10T08:47:20.232Z,10
2017-01-10T08:48:31.630Z,10
2017-01-10T08:49:43.279Z,10
2017-01-10T08:50:54.687Z,10
2017-01-10T08:52:06.292Z,15
2017-01-10T08:53:18.094Z,15
2017-01-10T08:54:29.494Z,15
2017-01-10T08:55:40.943Z,10
2017-01-10T08:56:52.338Z,15
2017-01-10T08:58:03.947Z,15
2017-01-10T08:59:15.550Z,15
2017-01-10T09:00:26.953Z,20
2017-01-10T09:01:38.598Z,15
2017-01-10T09:02:50.002Z,15
2017-01-10T09:04:01.400Z,15
2017-01-10T09:05:12.807Z,15
2017-01-10T09:06:24.408Z,15
2017-01-10T09:07:35.870Z,15
2017-01-10T09:08:47.278Z,15
2017-01-10T09:09:58.676Z,15
2017-01-10T09:11:10.083Z,15
2017-01-10T09:12:21.483Z,15
2017-01-10T09:13:32.932Z,15
2017-01-10T09:14:44.328Z,20
2017-01-10T09:15:55.728Z,20
2017-01-10T09:17:07.129Z,20
2017-01-10T09:18:18.743Z,20
2017-01-10T09:19:30.202Z,20
2017-01-10T09:20:41.602Z,20
2017-01-10T09:21:53.013Z,20
2017-01-10T09:23:04.611Z,20
2017-01-10T09:24:16.014Z,25
2017-01-10T09:25:27.473Z,30
2017-01-10T09:26:38.877Z,25
2017-01-10T09:27:50.269Z,30
2017-01-10T09:29:01.873Z,30
2017-01-10T09:30:13.472Z,30
2017-01-10T09:31:24.924Z,30
2017-01-10T09:32:36.362Z,25
2017-01-10T09:33:47.758Z,25
2017-01-10T09:34:59.152Z,25
2017-01-10T09:36:10.553Z,25
2017-01-10T09:37:22.000Z,35
2017-01-10T09:38:33.403Z,40
2017-01-10T09:39:44.796Z,45
2017-01-10T09:40:56.195Z,40
2017-01-10T09:42:07.600Z,40
2017-01-10T09:43:19.061Z,45
2017-01-10T09:44:30.459Z,50
2017-01-10T09:45:41.861Z,50
2017-01-10T09:46:53.456Z,60
2017-01-10T09:48:04.858Z,75
2017-01-10T09:49:16.533Z,75
2017-01-10T09:50:28.140Z,95
2017-01-10T09:51:39.540Z,95
2017-01-10T09:52:50.943Z,115
2017-01-10T09:54:02.341Z,105
2017-01-10T09:55:13.792Z,125
2017-01-10T09:56:25.186Z,100
2017-01-10T09:57:36.588Z,95
2017-01-10T09:58:47.987Z,90
2017-01-10T09:59:59.390Z,90
2017-01-10T10:01:10.783Z,85
2017-01-10T10:02:22.180Z,80
2017-01-10T10:03:33.777Z,75
2017-01-10T10:04:45.183Z,85
2017-01-10T10:05:56.634Z,95
2017-01-10T10:07:08.043Z,100
2017-01-10T10:08:19.443Z,115
2017-01-10T10:09:31.246Z,120
2017-01-10T10:10:42.650Z,135
2017-01-10T10:11:54.098Z,125
2017-01-10T10:13:05.697Z,145
2017-01-10T10:14:17.105Z,155
2017-01-10T10:15:28.501Z,150
2017-01-10T10:16:39.893Z,135
2017-01-10T10:17:51.550Z,105
2017-01-10T10:19:02.951Z,105
2017-01-10T10:20:14.358Z,110
2017-01-10T10:21:25.761Z,110
2017-01-10T10:22:37.162Z,115
2017-01-10T10:23:48.620Z,130
2017-01-10T10:25:00.052Z,135
2017-01-10T10:26:11.654Z,130
2017-01-10T10:27:23.049Z,145
2017-01-10T10:28:34.441Z,130
2017-01-10T10:29:45.890Z,115
2017-01-10T10:30:57.304Z,110
2017-01-10T10:32:08.711Z,105
2017-01-10T10:33:20.111Z,110
2017-01-10T10:34:31.734Z,105
2017-01-10T10:35:43.175Z,100
2017-01-10T10:36:54.766Z,110
2017-01-10T10:38:06.365Z,105
2017-01-10T10:39:17.765Z,100
2017-01-10T10:40:29.165Z,95
2017-01-10T10:41:40.821Z,100
2017-01-10T10:42:52.224Z,100
2017-01-10T10:44:03.618Z,105
2017-01-10T10:45:15.216Z,95
2017-01-10T10:46:26.818Z,100
2017-01-10T10:47:38.471Z,115
2017-01-10T10:48:49.867Z,120
2017-01-10T10:50:01.267Z,130
2017-01-10T10:51:12.664Z,130
2017-01-10T10:52:24.068Z,135
2017-01-10T10:53:35.524Z,150
2017-01-10T10:54:47.122Z,160
2017-01-10T10:55:58.522Z,180
2017-01-10T10:57:10.135Z,190
2017-01-10T10:58:21.538Z,195
2017-01-10T10:59:32.985Z,205
2017-01-10T11:00:44.396Z,185
2017-01-10T11:01:55.999Z,200
2017-01-10T11:03:07.409Z,220
2017-01-10T11:04:18.813Z,230
2017-01-10T11:05:30.254Z,195
2017-01-10T11:06:41.658Z,225
2017-01-10T11:07:53.264Z,190
2017-01-10T11:09:04.678Z,180
2017-01-10T11:10:16.081Z,210
2017-01-10T11:11:27.526Z,160
2017-01-10T11:12:38.924Z,140
2017-01-10T11:13:50.333Z,135
2017-01-10T11:15:01.729Z,165
2017-01-10T11:16:13.134Z,180
2017-01-10T11:17:24.583Z,185
2017-01-10T11:18:36.177Z,210
2017-01-10T11:19:47.579Z,200
2017-01-10T11:20:59.184Z,230
2017-01-10T11:22:10.587Z,250
2017-01-10T11:23:22.056Z,215
2017-01-10T11:24:33.455Z,220
2017-01-10T11:25:44.883Z,220
2017-01-10T11:26:56.287Z,210
2017-01-10T11:28:07.684Z,220
2017-01-10T11:29:19.340Z,210
2017-01-10T11:30:30.749Z,225
2017-01-10T11:31:42.149Z,305
2017-01-10T11:32:53.561Z,320
2017-01-10T11:34:04.962Z,385
2017-01-10T11:35:16.417Z,210
2017-01-10T11:36:28.022Z,155
2017-01-10T11:37:39.423Z,180
2017-01-10T11:38:50.826Z,210
2017-01-10T11:40:02.225Z,185
2017-01-10T11:41:13.684Z,150
2017-01-10T11:42:25.081Z,135
2017-01-10T11:43:36.479Z,160
2017-01-10T11:44:47.886Z,190
2017-01-10T11:45:59.498Z,125
2017-01-10T11:47:10.956Z,100
2017-01-10T11:48:22.365Z,100
2017-01-10T11:49:33.775Z,115
2017-01-10T11:50:45.174Z,130
2017-01-10T11:51:56.578Z,140
2017-01-10T11:53:08.059Z,135
2017-01-10T11:54:19.458Z,135
2017-01-10T11:55:30.859Z,170
2017-01-10T11:56:42.254Z,160
2017-01-10T11:57:53.667Z,140
2017-01-10T11:59:05.146Z,125
2017-01-10T12:00:16.764Z,105
2017-01-10T12:01:28.168Z,105
2017-01-10T12:02:39.574Z,125
2017-01-10T12:03:51.169Z,135
2017-01-10T12:05:02.614Z,150
2017-01-10T12:06:14.013Z,170
2017-01-10T12:07:25.433Z,180
2017-01-10T12:08:36.842Z,175
2017-01-10T12:09:48.235Z,145
2017-01-10T12:10:59.637Z,110
2017-01-10T12:12:11.041Z,100
2017-01-10T12:13:22.441Z,80
2017-01-10T12:14:33.843Z,75
2017-01-10T12:15:45.293Z,95
2017-01-10T12:16:56.702Z,155
2017-01-10T12:18:08.095Z,180
2017-01-10T12:19:19.693Z,175
2017-01-10T12:20:31.100Z,160
2017-01-10T12:21:42.549Z,135
2017-01-10T12:22:54.174Z,135
2017-01-10T12:24:05.568Z,115
2017-01-10T12:25:16.975Z,125
2017-01-10T12:26:28.381Z,125
2017-01-10T12:27:39.828Z,130
2017-01-10T12:28:51.435Z,140
2017-01-10T12:30:03.044Z,140
2017-01-10T12:31:14.454Z,135
2017-01-10T12:32:26.058Z,140
2017-01-10T12:33:37.509Z,145
2017-01-10T12:34:48.915Z,145
2017-01-10T12:36:00.317Z,130
2017-01-10T12:37:11.719Z,130
2017-01-10T12:38:23.323Z,135
2017-01-10T12:39:34.775Z,150
2017-01-10T12:40:46.180Z,160
2017-01-10T12:41:57.583Z,160
2017-01-10T12:43:08.988Z,165
2017-01-10T12:44:20.388Z,140
2017-01-10T12:45:31.847Z,115
2017-01-10T12:46:43.239Z,105
2017-01-10T12:47:54.639Z,105
2017-01-10T12:49:06.040Z,100
2017-01-10T12:50:17.645Z,110
2017-01-10T12:51:29.295Z,120
2017-01-10T12:52:40.708Z,125
2017-01-10T12:53:52.105Z,115
2017-01-10T12:55:03.512Z,100
2017-01-10T12:56:14.907Z,110
2017-01-10T12:57:26.362Z,120
2017-01-10T12:58:37.758Z,125
2017-01-10T12:59:49.166Z,115
2017-01-10T13:01:00.571Z,120
2017-01-10T13:02:11.968Z,120
2017-01-10T13:03:23.423Z,110
2017-01-10T13:04:34.828Z,100
2017-01-10T13:05:46.243Z,100
2017-01-10T13:06:57.841Z,95
2017-01-10T13:08:09.243Z,85
2017-01-10T13:09:20.902Z,75
2017-01-10T13:10:32.308Z,75
2017-01-10T13:11:43.703Z,75
2017-01-10T13:12:55.108Z,75
2017-01-10T13:14:06.514Z,70
2017-01-10T13:15:18.169Z,65
2017-01-10T13:16:29.565Z,65
2017-01-10T13:17:40.995Z,65
2017-01-10T13:18:52.607Z,60
2017-01-10T13:20:04.040Z,60
2017-01-10T13:21:15.493Z,60
2017-01-10T13:22:27.096Z,60
2017-01-10T13:23:38.704Z,55
2017-01-10T13:24:50.113Z,60
2017-01-10T13:26:01.761Z,55
2017-01-10T13:27:13.217Z,50
2017-01-10T13:28:24.612Z,50
2017-01-10T13:29:36.013Z,55
2017-01-10T13:30:47.415Z,60
2017-01-10T13:31:58.821Z,60
2017-01-10T13:33:10.278Z,60
2017-01-10T13:34:21.685Z,60
2017-01-10T13:35:33.091Z,65
2017-01-10T13:36:44.506Z,70
2017-01-10T13:37:55.911Z,80
2017-01-10T13:39:07.574Z,85
2017-01-10T13:40:18.992Z,85
2017-01-10T13:41:30.424Z,85
2017-01-10T13:42:41.855Z,85
2017-01-10T13:43:53.254Z,95
2017-01-10T13:45:04.910Z,95
2017-01-10T13:46:16.314Z,90
2017-01-10T13:47:27.917Z,90
2017-01-10T13:48:39.323Z,95
2017-01-10T13:49:50.729Z,95
2017-01-10T13:51:02.132Z,90
2017-01-10T13:52:13.569Z,90
2017-01-10T13:53:24.967Z,85
2017-01-10T13:54:36.356Z,85
2017-01-10T13:55:47.812Z,90
2017-01-10T13:56:59.212Z,90
2017-01-10T13:58:10.610Z,90
2017-01-10T13:59:22.010Z,85
2017-01-10T14:00:33.422Z,75
2017-01-10T14:01:44.876Z,60
2017-01-10T14:02:56.278Z,55
2017-01-10T14:04:07.683Z,50
2017-01-10T14:05:19.083Z,55
2017-01-10T14:06:30.481Z,65
2017-01-10T14:07:41.934Z,60
2017-01-10T14:08:53.343Z,65
2017-01-10T14:10:04.757Z,65
2017-01-10T14:11:16.164Z,60
2017-01-10T14:12:27.772Z,60
2017-01-10T14:13:39.416Z,60
2017-01-10T14:14:50.815Z,60
2017-01-10T14:16:02.220Z,55
2017-01-10T14:17:13.615Z,55
2017-01-10T14:18:25.029Z,55
2017-01-10T14:19:36.683Z,50
2017-01-10T14:20:48.087Z,50
2017-01-10T14:21:59.489Z,50
2017-01-10T14:23:10.892Z,50
2017-01-10T14:24:22.301Z,55
2017-01-10T14:25:33.752Z,60
2017-01-10T14:26:45.153Z,60
2017-01-10T14:27:56.758Z,55
2017-01-10T14:29:08.384Z,50
2017-01-10T14:30:19.995Z,50
2017-01-10T14:31:31.437Z,50
2017-01-10T14:32:43.037Z,45
2017-01-10T14:33:54.428Z,40
2017-01-10T14:35:05.830Z,40
2017-01-10T14:36:17.231Z,35
2017-01-10T14:37:28.877Z,35
2017-01-10T14:38:40.275Z,30
2017-01-10T14:39:51.679Z,30
2017-01-10T14:41:03.082Z,25
2017-01-10T14:42:14.484Z,20
2017-01-10T14:43:25.939Z,20
2017-01-10T14:44:37.338Z,20
2017-01-10T14:45:49.142Z,20
2017-01-10T14:47:00.553Z,20
2017-01-10T14:48:11.962Z,20
2017-01-10T14:49:23.414Z,20
2017-01-10T14:50:34.817Z,15
2017-01-10T14:51:46.228Z,15
2017-01-10T14:52:57.635Z,15
2017-01-10T14:54:09.039Z,15
2017-01-10T14:55:20.708Z,15
2017-01-10T14:56:32.115Z,15
2017-01-10T14:57:43.520Z,15
2017-01-10T14:58:54.928Z,10
2017-01-10T15:00:06.334Z,15
2017-01-10T15:01:17.787Z,15
2017-01-10T15:02:29.190Z,15
2017-01-10T15:03:40.793Z,15
2017-01-10T15:04:52.602Z,15
2017-01-10T15:06:04.001Z,15
2017-01-10T15:07:15.447Z,15
2017-01-10T15:08:26.844Z,15
2017-01-10T15:09:38.245Z,15
2017-01-10T15:10:49.649Z,10
2017-01-10T15:12:01.053Z,10
2017-01-10T15:13:12.710Z,10
2017-01-10T15:14:24.116Z,10
2017-01-10T15:15:35.509Z,10
2017-01-10T15:16:46.909Z,10
2017-01-10T15:17:58.312Z,10
2017-01-10T15:19:09.772Z,10
2017-01-10T15:20:21.176Z,10
2017-01-10T15:21:32.582Z,10
2017-01-10T15:22:43.984Z,10
2017-01-10T15:23:55.389Z,5
2017-01-10T15:25:07.038Z,5
2017-01-10T15:26:18.442Z,5
2017-01-10T15:27:29.849Z,5
2017-01-10T15:28:41.250Z,5
2017-01-10T15:29:52.657Z,5
2017-01-10T15:31:04.064Z,5
2017-01-10T15:32:15.463Z,5
2017-01-10T15:33:26.867Z,0
2017-01-10T15:34:38.474Z,0
2017-01-10T15:35:49.926Z,0
2017-01-10T15:37:01.331Z,0
2017-01-10T15:38:12.733Z,0
2017-01-10T15:39:24.136Z,0
2017-01-10T15:40:35.538Z,0
2017-01-10T15:41:47.193Z,0
2017-01-10T15:42:58.592Z,0
2017-01-10T15:44:10.006Z,0
2017-01-10T15:45:21.615Z,0
2017-01-10T15:46:33.009Z,0
2017-01-10T15:47:44.421Z,0
2017-01-10T15:48:56.027Z,0
2017-01-10T15:50:07.433Z,0
2017-01-10T15:51:18.831Z,0
2017-01-10T15:52:30.282Z,0
2017-01-10T15:53:41.685Z,0
2017-01-10T15:54:53.286Z,0
2017-01-10T15:56:04.929Z,0
2017-01-10T15:57:16.332Z,0
2017-01-10T15:58:27.780Z,0
2017-01-10T15:59:39.177Z,0
2017-01-10T16:00:50.605Z,0
2017-01-10T16:02:02.014Z,0
2017-01-10T16:03:13.428Z,0
2017-01-10T16:04:24.874Z,0
2017-01-10T16:05:36.480Z,0
2017-01-10T16:06:47.889Z,0
2017-01-10T16:07:59.283Z,0
2017-01-10T16:09:10.883Z,0
2017-01-10T16:10:22.295Z,0
2017-01-10T16:11:33.694Z,0
2017-01-10T16:12:45.102Z,0
2017-01-10T16:13:56.511Z,0
2017-01-10T16:15:07.963Z,0
2017-01-10T16:16:19.368Z,0
2017-01-10T16:17:30.764Z,0
2017-01-10T16:18:42.380Z,0
2017-01-10T16:19:53.785Z,0
2017-01-10T16:21:05.188Z,0
2017-01-10T16:22:16.586Z,0
2017-01-10T16:23:27.983Z,0
2017-01-10T16:24:39.384Z,0
2017-01-10T16:25:50.831Z,0
2017-01-10T16:27:02.234Z,0
2017-01-10T16:28:13.634Z,0
2017-01-10T16:29:25.041Z,0
2017-01-10T16:30:36.657Z,0
2017-01-10T16:31:48.310Z,0
2017-01-10T16:32:59.746Z,0
2017-01-10T16:34:11.345Z,0
2017-01-10T16:35:22.747Z,0
2017-01-10T16:36:34.345Z,0
2017-01-10T16:37:45.988Z,0
2017-01-10T16:38:57.388Z,0
2017-01-10T16:40:08.788Z,0
2017-01-10T16:41:20.186Z,0
2017-01-10T16:42:31.789Z,0
2017-01-10T16:43:43.237Z,0
2017-01-10T16:44:54.632Z,0
2017-01-10T16:46:06.055Z,0
2017-01-10T16:47:17.471Z,0
2017-01-10T16:48:28.879Z,0
2017-01-10T16:49:40.339Z,0
2017-01-10T16:50:51.732Z,0
2017-01-10T16:52:03.136Z,0
2017-01-10T16:53:14.534Z,0
2017-01-10T16:54:25.934Z,0
2017-01-10T16:55:37.379Z,0
2017-01-10T16:56:49.199Z,0
2017-01-10T16:58:00.603Z,0
2017-01-10T16:59:12.007Z,0
2017-01-10T17:00:23.413Z,0
2017-01-10T17:01:34.877Z,0
2017-01-10T17:02:46.310Z,0
2017-01-10T17:03:57.908Z,0
2017-01-10T17:05:09.317Z,0
2017-01-10T17:06:20.712Z,0
2017-01-10T17:07:32.169Z,0
2017-01-10T17:08:43.770Z,0
2017-01-10T17:09:55.374Z,0
2017-01-10T17:11:06.775Z,0
2017-01-10T17:12:18.181Z,0
2017-01-10T17:13:29.631Z,0
2017-01-10T17:14:41.035Z,0